Overview Statistics Trail Chart Weather Telemetry Raw packets
 

This is the latest recevied weather packets stored in our database for station/object SP3ZBZ-13. If no packets are shown the sender has not sent any weather packets the latest 10 day(s).

<< 31 32 33 34 35 36 37 >>
Time Temp. Humidity Pressure Rain* Wind** Luminosity Snow
1787875076 16.67° C 63% 1015.2 hPa - - - -
1787874175 16.11° C 61% 1015.4 hPa - - - -
1787873273 13.33° C 73% 1015.6 hPa - - - -
1787872372 13.33° C 76% 1015.6 hPa - - - -
1787871471 13.33° C 79% 1015.9 hPa - - - -
1787870570 13.33° C 79% 1015.9 hPa - - - -
1787869669 13.33° C 78% 1016 hPa - - - -
1787868768 13.33° C 77% 1016.2 hPa - - - -
1787867867 13.89° C 77% 1016.4 hPa - - - -
1787866966 13.89° C 77% 1016.6 hPa - - - -
1787866065 13.89° C 77% 1016.6 hPa - - - -
1787865163 13.89° C 76% 1016.5 hPa - - - -
1787864263 14.44° C 74% 1016.4 hPa - - - -
1787863361 15.56° C 74% 1016.5 hPa - - - -
1787862460 17.22° C 66% 1016.6 hPa - - - -
1787860654 18.89° C 57% 1016.2 hPa - - - -
1787859753 18.89° C 56% 1016 hPa - - - -
1787858852 19.44° C 56% 1016.2 hPa - - - -
1787857953 19.44° C 55% 1016.2 hPa - - - -
1787855240 20.56° C 53% 1016.5 hPa - - - -
1787854339 20.56° C 53% 1016.6 hPa - - - -
1787853437 21.11° C 50% 1016.5 hPa - - 2 W/m² -
1787852537 21.67° C 49% 1016.6 hPa - - 6 W/m² -
1787851635 22.22° C 47% 1016.7 hPa - - 15 W/m² -
1787850734 22.78° C 46% 1016.8 hPa - - 26 W/m² -

* Rain since midnight (hover to see other rain measurements)
** Current wind speed in m/s (hover to see current wind gust speed)